Time;durP1;ratioP1;P1;durP2;ratioP2;P2;SDS_P1;SDS_P2;PMS_P1;PMS_P2;Temp;Humidity;BMP_temperature;BMP_pressure;BME280_temperature;BME280_humidity;BME280_pressure;Samples;Min_cycle;Max_cycle;Signal;HPM_P1;HPM_P2
2022/03/22 00:02:09;;;;;;;;;;;;;;;-0.42;52.18;102001.31;6243215;23;19922;-81
2022/03/22 00:04:34;;;;;;;;;;;;;;;-0.43;52.48;102009.78;6244302;23;20483;-81
2022/03/22 00:07:00;;;;;;;;;;;;;;;-0.44;52.50;102008.19;6243573;23;19916;-81
2022/03/22 00:09:25;;;;;;;;;;;;;;;-0.53;52.23;102006.25;6217054;23;20337;-81
2022/03/22 00:11:51;;;;;;;;;;;;;;;-0.59;52.99;102007.50;6243926;23;20005;-81
2022/03/22 00:14:17;;;;;;;;;;;;;;;-0.63;52.75;102011.16;6216892;23;19920;-81
2022/03/22 00:16:42;;;;;;;;;;;;;;;-0.69;52.84;102012.41;6243832;23;19998;-81
2022/03/22 00:19:08;;;;;;;;;;;;;;;-0.73;53.42;102003.25;6217139;23;19958;-84
2022/03/22 00:21:35;;;;;;;;;;;;;;;-0.69;53.58;102006.97;6192163;23;19962;-83
2022/03/22 00:24:01;;;;;;;;;;;;;;;-0.69;53.35;102006.97;6243514;23;19981;-84
2022/03/22 00:26:27;;;;;;;;;;;;;;;-0.70;53.44;102003.44;6217009;23;19965;-83
2022/03/22 00:28:53;;;;;;;;;;;;;;;-0.74;53.81;102007.09;6243967;23;20338;-83
2022/03/22 00:31:18;;;;;;;;;;;;;;;-0.76;53.54;102003.88;6243822;23;19916;-83
2022/03/22 00:33:44;;;;;;;;;;;;;;;-0.71;53.59;102010.00;6244083;23;19919;-83
2022/03/22 00:36:10;;;;;;;;;;;;;;;-0.65;53.68;102000.59;6217217;23;20353;-81
2022/03/22 00:38:36;;;;;;;;;;;;;;;-0.77;53.76;102005.81;6243878;23;20299;-81
2022/03/22 00:41:02;;;;;;;;;;;;;;;-0.84;54.21;102001.91;6243918;23;19919;-81
2022/03/22 00:43:27;;;;;;;;;;;;;;;-0.83;53.91;102011.69;6243901;23;19915;-81
2022/03/22 00:45:54;;;;;;;;;;;;;;;-0.76;53.66;102006.59;6243793;23;19991;-81
2022/03/22 00:48:19;;;;;;;;;;;;;;;-0.74;53.68;101996.19;6243923;23;20235;-80
2022/03/22 00:50:46;;;;;;;;;;;;;;;-0.77;53.66;102003.09;6243637;23;19955;-81
2022/03/22 00:53:15;;;;;;;;;;;;;;;-0.78;53.57;102008.84;6243482;23;19916;-81
2022/03/22 00:55:41;;;;;;;;;;;;;;;-0.82;53.28;102013.31;6192524;23;19915;-81
2022/03/22 00:58:06;;;;;;;;;;;;;;;-0.86;53.06;102007.69;6243678;23;20346;-83
2022/03/22 01:00:33;;;;;;;;;;;;;;;-0.95;53.22;102004.91;6192000;23;19939;-83
2022/03/22 01:02:59;;;;;;;;;;;;;;;-0.93;53.85;102009.25;6215609;23;19923;-83
2022/03/22 01:05:25;;;;;;;;;;;;;;;-1.01;53.92;102002.63;6243253;23;20326;-83
2022/03/22 01:07:55;;;;;;;;;;;;;;;-0.92;54.01;102000.75;6216948;23;19921;-83
2022/03/22 01:10:21;;;;;;;;;;;;;;;-0.97;53.52;102001.66;6243288;23;20334;-83
2022/03/22 01:12:47;;;;;;;;;;;;;;;-1.02;53.70;101996.38;6216465;23;19915;-83
2022/03/22 01:15:16;;;;;;;;;;;;;;;-1.04;54.82;102005.97;6216835;23;20365;-83
2022/03/22 01:17:42;;;;;;;;;;;;;;;-1.00;54.53;102007.75;6243786;23;19919;-81
2022/03/22 01:20:11;;;;;;;;;;;;;;;-0.96;54.71;102003.28;6243175;23;20392;-81
2022/03/22 01:22:38;;;;;;;;;;;;;;;-0.95;54.81;102004.91;6243425;23;19919;-81
2022/03/22 01:25:06;;;;;;;;;;;;;;;-0.96;55.02;102002.47;6243572;23;19916;-81
2022/03/22 01:27:32;;;;;;;;;;;;;;;-0.99;54.61;101998.47;6243596;23;19920;-81
2022/03/22 01:29:57;;;;;;;;;;;;;;;-0.99;54.73;102001.19;6243461;23;19949;-81
2022/03/22 01:32:23;;;;;;;;;;;;;;;-1.03;54.48;101993.94;6243767;23;19912;-81
2022/03/22 01:34:48;;;;;;;;;;;;;;;-1.03;54.23;101997.47;6217004;23;19915;-83
2022/03/22 01:37:14;;;;;;;;;;;;;;;-1.07;54.58;101988.31;6216837;23;19962;-83
2022/03/22 01:39:39;;;;;;;;;;;;;;;-1.16;54.66;101998.34;6243571;23;20262;-83
2022/03/22 01:42:05;;;;;;;;;;;;;;;-1.05;55.38;101991.53;6243426;23;20367;-83
2022/03/22 01:44:30;;;;;;;;;;;;;;;-1.12;55.13;101988.44;6244036;23;19970;-83
2022/03/22 01:46:58;;;;;;;;;;;;;;;-1.17;54.96;101991.28;6243367;23;20334;-84
2022/03/22 01:49:24;;;;;;;;;;;;;;;-1.31;55.62;101987.84;6243681;23;20390;-83
2022/03/22 01:51:51;;;;;;;;;;;;;;;-1.35;55.51;101984.13;6243048;23;19942;-84
2022/03/22 01:54:17;;;;;;;;;;;;;;;-1.33;55.38;101978.38;6243886;23;19915;-80
2022/03/22 01:56:42;;;;;;;;;;;;;;;-1.32;55.43;101988.94;6243494;23;20254;-81
2022/03/22 01:59:08;;;;;;;;;;;;;;;-1.41;56.03;101983.44;6243716;23;20330;-81
2022/03/22 02:07:03;;;;;;;;;;;;;;;-1.31;54.85;101971.50;6219522;23;19919;-82
2022/03/22 02:09:29;;;;;;;;;;;;;;;-1.30;54.68;101973.13;6243553;23;19911;-81
2022/03/22 02:11:55;;;;;;;;;;;;;;;-1.31;54.39;101971.50;6242662;23;19952;-81
2022/03/22 02:14:21;;;;;;;;;;;;;;;-1.26;54.27;101974.13;6217143;23;19950;-82
2022/03/22 02:16:47;;;;;;;;;;;;;;;-1.25;54.30;101967.53;6243110;23;19923;-82
2022/03/22 02:19:14;;;;;;;;;;;;;;;-1.25;54.57;101967.53;6245517;23;19951;-82
2022/03/22 02:21:39;;;;;;;;;;;;;;;-1.23;54.94;101973.50;6244840;23;19915;-81
2022/03/22 02:24:05;;;;;;;;;;;;;;;-1.27;55.10;101969.78;6218550;23;19912;-82
2022/03/22 02:26:30;;;;;;;;;;;;;;;-1.32;55.22;101972.63;6245550;23;19919;-81
2022/03/22 02:28:56;;;;;;;;;;;;;;;-1.40;55.47;101973.38;6244644;23;19912;-82
2022/03/22 02:31:25;;;;;;;;;;;;;;;-1.41;55.48;101979.91;6245284;23;19946;-81
2022/03/22 02:33:51;;;;;;;;;;;;;;;-1.34;55.18;101966.69;6244378;23;19990;-82
2022/03/22 02:36:16;;;;;;;;;;;;;;;-1.36;54.61;101973.53;6245425;23;19958;-82
2022/03/22 02:38:43;;;;;;;;;;;;;;;-1.30;54.40;101964.97;6244912;23;20356;-82
2022/03/22 02:41:13;;;;;;;;;;;;;;;-1.30;53.40;101978.56;6245038;23;19912;-82
2022/03/22 02:43:39;;;;;;;;;;;;;;;-1.31;52.67;101968.78;6244528;23;19915;-82
2022/03/22 02:46:04;;;;;;;;;;;;;;;-1.31;53.07;101974.22;6245394;23;19923;-82
2022/03/22 02:48:29;;;;;;;;;;;;;;;-1.30;52.58;101973.13;6244849;23;19939;-82
2022/03/22 02:50:56;;;;;;;;;;;;;;;-1.30;51.92;101975.03;6244910;23;20002;-82
2022/03/22 02:53:24;;;;;;;;;;;;;;;-1.22;51.91;101977.03;6244884;23;19950;-82
2022/03/22 02:55:49;;;;;;;;;;;;;;;-1.23;52.11;101975.41;6245038;23;19916;-82
2022/03/22 02:58:15;;;;;;;;;;;;;;;-1.31;53.82;101985.13;6245105;23;19969;-82
2022/03/22 03:00:40;;;;;;;;;;;;;;;-1.38;54.69;101979.31;6244627;23;19998;-81
2022/03/22 03:03:06;;;;;;;;;;;;;;;-1.37;54.92;101980.91;6244016;23;19923;-81
2022/03/22 03:05:32;;;;;;;;;;;;;;;-1.41;54.89;101980.72;6244899;23;19916;-82
2022/03/22 03:07:58;;;;;;;;;;;;;;;-1.32;54.87;101982.69;6244543;23;20324;-82
2022/03/22 03:10:24;;;;;;;;;;;;;;;-1.40;54.64;101976.09;6244654;23;19943;-82
2022/03/22 03:12:56;;;;;;;;;;;;;;;-1.43;55.38;101984.88;6217681;23;19915;-82
2022/03/22 03:15:22;;;;;;;;;;;;;;;-1.46;56.10;101988.22;6245087;23;19922;-82
2022/03/22 03:17:47;;;;;;;;;;;;;;;-1.50;55.92;101981.78;6244330;23;19919;-82
2022/03/22 03:20:13;;;;;;;;;;;;;;;-1.56;56.57;101991.97;6244922;23;20560;-82
2022/03/22 03:22:38;;;;;;;;;;;;;;;-1.61;56.72;101983.13;6217525;23;20372;-81
2022/03/22 03:25:06;;;;;;;;;;;;;;;-1.64;56.68;101981.03;6244968;23;19916;-82
2022/03/22 03:27:32;;;;;;;;;;;;;;;-1.70;56.77;101987.72;6244420;23;19927;-82
2022/03/22 03:29:58;;;;;;;;;;;;;;;-1.73;56.76;101983.66;6243983;23;19922;-81
2022/03/22 03:32:24;;;;;;;;;;;;;;;-1.74;56.92;101987.53;6244641;23;19994;-82
2022/03/22 03:34:49;;;;;;;;;;;;;;;-1.78;57.08;101986.53;6244409;23;19962;-81
2022/03/22 03:37:15;;;;;;;;;;;;;;;-1.75;56.84;101987.81;6244750;23;19919;-82
2022/03/22 03:39:40;;;;;;;;;;;;;;;-1.74;57.14;101995.69;6217324;23;19978;-82
2022/03/22 03:42:06;;;;;;;;;;;;;;;-1.81;57.71;101994.47;6244349;23;19915;-82
2022/03/22 03:47:21;;;;;;;;;;;;;;;-1.87;58.03;101993.78;6244460;23;20250;-82
2022/03/22 03:49:48;;;;;;;;;;;;;;;-1.85;57.75;101990.75;6243943;23;19912;-82
2022/03/22 03:52:14;;;;;;;;;;;;;;;-1.84;57.80;101995.09;6244324;23;19923;-82
2022/03/22 03:54:40;;;;;;;;;;;;;;;-1.86;57.60;101997.31;6244684;23;19916;-81
2022/03/22 03:57:06;;;;;;;;;;;;;;;-1.93;58.13;101993.09;6244864;23;19963;-81
2022/03/22 03:59:31;;;;;;;;;;;;;;;-1.97;58.49;102002.16;6244470;23;20337;-82
2022/03/22 04:01:57;;;;;;;;;;;;;;;-1.98;57.95;101997.84;6243900;23;19923;-81
2022/03/22 04:04:22;;;;;;;;;;;;;;;-2.02;58.22;102003.06;6243839;23;19926;-82
2022/03/22 04:06:48;;;;;;;;;;;;;;;-2.06;59.07;101996.63;6243286;23;19923;-82
2022/03/22 04:09:14;;;;;;;;;;;;;;;-2.08;59.85;102004.31;6244182;23;19911;-82
2022/03/22 04:11:39;;;;;;;;;;;;;;;-2.11;59.61;102004.91;6244119;23;19915;-82
2022/03/22 04:14:05;;;;;;;;;;;;;;;-2.08;58.89;101998.88;6243956;23;19918;-81
2022/03/22 04:16:30;;;;;;;;;;;;;;;-2.09;58.87;102001.88;6244666;23;19922;-81
2022/03/22 04:18:56;;;;;;;;;;;;;;;-2.16;59.07;102007.75;6243660;23;20308;-82
2022/03/22 04:21:21;;;;;;;;;;;;;;;-2.19;59.45;102002.91;6244164;23;20334;-81
2022/03/22 04:23:46;;;;;;;;;;;;;;;-2.16;58.87;102001.50;6243702;23;20280;-82
2022/03/22 04:26:12;;;;;;;;;;;;;;;-2.13;58.56;102004.41;6244447;23;19917;-81
2022/03/22 04:34:05;;;;;;;;;;;;;;;-2.33;59.38;102006.72;6243920;23;20249;-81
2022/03/22 04:36:30;;;;;;;;;;;;;;;-2.28;59.40;102012.88;6244100;23;19915;-81
2022/03/22 04:38:55;;;;;;;;;;;;;;;-2.28;59.51;102021.03;6243613;23;19914;-81
2022/03/22 04:41:21;;;;;;;;;;;;;;;-2.24;59.39;102022.03;6244215;23;19916;-81
2022/03/22 04:43:46;;;;;;;;;;;;;;;-2.24;59.04;102022.03;6243723;23;19954;-81
2022/03/22 04:46:18;;;;;;;;;;;;;;;-2.27;59.24;102032.72;6244000;23;19949;-81
2022/03/22 04:48:46;;;;;;;;;;;;;;;-2.32;59.21;102041.78;6243694;23;19924;-81
2022/03/22 04:56:49;;;;;;;;;;;;;;;-2.46;59.78;102032.78;6243502;23;19923;-81
2022/03/22 04:59:22;;;;;;;;;;;;;;;-2.44;60.04;102033.31;6243202;23;20285;-81
2022/03/22 05:01:48;;;;;;;;;;;;;;;-2.39;59.85;102031.31;6243241;23;20002;-81
2022/03/22 05:04:13;;;;;;;;;;;;;;;-2.42;59.69;102033.81;6243278;23;19969;-81
2022/03/22 05:06:39;;;;;;;;;;;;;;;-2.43;60.37;102032.22;6244285;23;19995;-81
2022/03/22 05:09:05;;;;;;;;;;;;;;;-2.39;60.18;102046.81;6243346;23;19918;-81
2022/03/22 05:11:33;;;;;;;;;;;;;;;-2.33;60.17;102034.72;6243600;23;19915;-81
2022/03/22 05:13:58;;;;;;;;;;;;;;;-2.29;59.99;102035.72;6216683;23;19931;-81
2022/03/22 05:16:25;;;;;;;;;;;;;;;-2.25;59.58;102035.91;6243791;23;19918;-81
2022/03/22 05:18:51;;;;;;;;;;;;;;;-2.29;60.28;102035.72;6242929;23;20388;-82
2022/03/22 05:21:17;;;;;;;;;;;;;;;-2.21;60.20;102016.00;6243368;23;19911;-82
2022/03/22 05:23:42;;;;;;;;;;;;;;;-2.14;60.06;102046.28;6239179;23;19920;-82
2022/03/22 05:26:08;;;;;;;;;;;;;;;-2.10;59.84;102044.56;6240042;23;19938;-82
2022/03/22 05:28:33;;;;;;;;;;;;;;;-2.07;58.91;102044.00;6241165;23;19919;-82
2022/03/22 05:30:59;;;;;;;;;;;;;;;-1.98;58.27;102033.97;6241947;23;19915;-80
2022/03/22 05:33:24;;;;;;;;;;;;;;;-1.82;57.42;102031.78;6240955;23;20423;-80
2022/03/22 05:35:49;;;;;;;;;;;;;;;-1.73;56.98;102040.00;6241633;23;20387;-80
2022/03/22 05:38:15;;;;;;;;;;;;;;;-1.57;55.17;102039.34;6188206;23;19908;-80
2022/03/22 05:40:40;;;;;;;;;;;;;;;-1.50;54.30;102042.47;6241186;23;19963;-80
2022/03/22 05:43:06;;;;;;;;;;;;;;;-1.43;53.75;102036.59;6240552;23;20295;-80
2022/03/22 05:45:32;;;;;;;;;;;;;;;-1.44;53.14;102052.13;6240591;23;19954;-80
2022/03/22 05:48:00;;;;;;;;;;;;;;;-1.31;53.29;102046.94;6241388;23;19919;-80
2022/03/22 05:50:28;;;;;;;;;;;;;;;-1.22;53.20;102053.25;6241728;23;19916;-80
2022/03/22 05:52:54;;;;;;;;;;;;;;;-1.06;53.30;102058.03;6215802;23;19916;-80
2022/03/22 05:55:19;;;;;;;;;;;;;;;-0.82;52.57;102065.06;6243808;23;19919;-80
2022/03/22 05:57:44;;;;;;;;;;;;;;;-0.65;53.57;102057.81;6243778;23;20222;-80
2022/03/22 06:00:10;;;;;;;;;;;;;;;-0.45;53.40;102059.19;6191512;23;19916;-80
2022/03/22 06:02:37;;;;;;;;;;;;;;;-0.21;52.49;102059.63;6191574;23;19919;-80
2022/03/22 06:05:02;;;;;;;;;;;;;;;0.02;51.40;102054.06;6243596;23;19961;-80
2022/03/22 06:07:28;;;;;;;;;;;;;;;0.21;49.14;102069.03;6243148;23;19923;-80
2022/03/22 06:09:53;;;;;;;;;;;;;;;0.42;48.60;102058.31;6243540;23;19994;-80
2022/03/22 06:12:19;;;;;;;;;;;;;;;0.62;48.51;102057.69;6218436;23;19915;-80
2022/03/22 06:14:45;;;;;;;;;;;;;;;0.87;47.54;102056.88;6245086;23;19946;-80
2022/03/22 06:17:10;;;;;;;;;;;;;;;1.01;46.21;102058.66;6245660;23;19947;-80
2022/03/22 06:19:35;;;;;;;;;;;;;;;1.25;46.30;102048.00;6218148;23;20349;-79
2022/03/22 06:22:01;;;;;;;;;;;;;;;1.52;48.95;102058.53;6216919;23;19995;-79
2022/03/22 06:24:26;;;;;;;;;;;;;;;1.78;48.83;102051.00;6244139;23;19916;-79
2022/03/22 06:26:51;;;;;;;;;;;;;;;2.01;48.55;102053.50;6243710;23;19918;-79
2022/03/22 06:29:17;;;;;;;;;;;;;;;2.23;48.45;102051.25;6243463;23;19942;-79
2022/03/22 06:31:44;;;;;;;;;;;;;;;2.46;47.77;102048.22;6243244;23;19920;-79
2022/03/22 06:34:09;;;;;;;;;;;;;;;2.61;47.40;102045.69;6243857;23;20420;-79
2022/03/22 06:36:35;;;;;;;;;;;;;;;2.73;47.23;102053.97;6217067;23;19916;-79
2022/03/22 06:39:00;;;;;;;;;;;;;;;2.92;46.89;102052.66;6241026;23;19917;-80
2022/03/22 06:41:25;;;;;;;;;;;;;;;3.11;46.31;102058.47;6243018;23;19915;-81
2022/03/22 06:43:51;;;;;;;;;;;;;;;3.33;46.01;102060.81;6243253;23;20440;-79
2022/03/22 06:46:16;;;;;;;;;;;;;;;3.57;45.12;102060.88;6215582;23;19915;-79
2022/03/22 06:48:42;;;;;;;;;;;;;;;3.69;45.11;102060.06;6241983;23;20261;-83
2022/03/22 06:51:08;;;;;;;;;;;;;;;3.81;43.93;102065.56;6214654;23;19915;-84
2022/03/22 06:53:33;;;;;;;;;;;;;;;4.01;43.24;102063.88;6242398;23;19994;-84
2022/03/22 06:55:58;;;;;;;;;;;;;;;4.22;42.87;102070.03;6242315;23;20227;-84
2022/03/22 06:58:25;;;;;;;;;;;;;;;4.49;42.64;102065.78;6242553;23;19916;-84
2022/03/22 07:00:54;;;;;;;;;;;;;;;4.75;42.56;102068.13;6242685;23;19919;-83
2022/03/22 07:03:19;;;;;;;;;;;;;;;4.95;41.14;102058.88;6242604;23;19961;-84
2022/03/22 07:05:45;;;;;;;;;;;;;;;5.02;40.77;102065.38;6243889;23;19986;-84
2022/03/22 07:08:11;;;;;;;;;;;;;;;5.19;40.91;102064.28;6242917;23;19916;-84
2022/03/22 07:10:37;;;;;;;;;;;;;;;5.42;40.09;102068.03;6215693;23;20310;-84
2022/03/22 07:13:06;;;;;;;;;;;;;;;5.69;39.82;102068.34;6242513;23;19916;-85
2022/03/22 07:15:32;;;;;;;;;;;;;;;6.00;39.46;102073.88;6242618;23;19915;-84
2022/03/22 07:18:01;;;;;;;;;;;;;;;6.28;39.09;102071.78;6242910;23;19916;-84
2022/03/22 07:20:26;;;;;;;;;;;;;;;6.61;38.66;102062.28;6243853;23;19926;-85
2022/03/22 07:22:52;;;;;;;;;;;;;;;6.98;38.33;102066.22;6243506;23;20244;-84
2022/03/22 07:25:17;;;;;;;;;;;;;;;7.15;37.52;102068.56;6244617;23;20034;-84
2022/03/22 07:27:43;;;;;;;;;;;;;;;7.36;36.95;102070.94;6244739;23;20041;-84
2022/03/22 07:30:10;;;;;;;;;;;;;;;7.56;36.80;102066.16;6244759;23;19938;-84
2022/03/22 07:32:36;;;;;;;;;;;;;;;7.85;35.82;102068.22;6244655;23;19950;-85
2022/03/22 07:35:02;;;;;;;;;;;;;;;8.12;35.82;102069.88;6244181;23;19912;-85
2022/03/22 07:37:28;;;;;;;;;;;;;;;8.34;35.48;102041.38;6244736;23;19970;-85
2022/03/22 07:39:54;;;;;;;;;;;;;;;8.50;34.69;102068.06;6243745;23;20325;-84
2022/03/22 07:42:24;;;;;;;;;;;;;;;8.60;34.35;102068.25;6244477;23;19922;-84
2022/03/22 07:44:49;;;;;;;;;;;;;;;8.86;34.60;102064.59;6244210;23;19915;-84
2022/03/22 07:47:15;;;;;;;;;;;;;;;8.93;33.98;102064.72;6244476;23;20367;-85
2022/03/22 07:55:11;;;;;;;;;;;;;;;9.74;32.06;102064.78;6243795;23;19919;-84
2022/03/22 07:57:38;;;;;;;;;;;;;;;9.98;31.00;102074.50;6244298;23;19969;-85
2022/03/22 08:00:04;;;;;;;;;;;;;;;10.26;30.96;102061.69;6243701;23;20370;-85
2022/03/22 08:02:32;;;;;;;;;;;;;;;10.08;29.50;102074.56;6244060;23;19962;-84
2022/03/22 08:04:58;;;;;;;;;;;;;;;10.08;28.55;102069.03;6244097;23;20364;-85
2022/03/22 08:07:23;;;;;;;;;;;;;;;10.26;27.31;102075.53;6217452;23;19919;-85
2022/03/22 08:09:48;;;;;;;;;;;;;;;10.28;26.55;102073.16;6216837;23;19912;-85
2022/03/22 08:12:14;;;;;;;;;;;;;;;10.50;26.81;102068.56;6244119;23;19915;-84
2022/03/22 08:14:39;;;;;;;;;;;;;;;10.73;25.69;102068.28;6243951;23;20223;-85
2022/03/22 08:17:05;;;;;;;;;;;;;;;11.07;24.93;102061.28;6243885;23;19911;-85
2022/03/22 08:19:30;;;;;;;;;;;;;;;11.06;25.20;102062.47;6244173;23;20389;-84
2022/03/22 08:21:55;;;;;;;;;;;;;;;11.26;25.13;102062.13;6243883;23;19927;-84
2022/03/22 08:24:22;;;;;;;;;;;;;;;11.49;25.45;102051.47;6243888;23;19942;-85
2022/03/22 08:26:48;;;;;;;;;;;;;;;11.61;24.81;102060.22;6244011;23;19986;-85
2022/03/22 08:29:14;;;;;;;;;;;;;;;11.71;24.94;102064.22;6244169;23;20292;-85
2022/03/22 08:31:39;;;;;;;;;;;;;;;11.55;24.39;102055.44;6244205;23;19911;-85
2022/03/22 08:34:05;;;;;;;;;;;;;;;11.86;24.68;102063.06;6243406;23;20350;-85
2022/03/22 08:36:30;;;;;;;;;;;;;;;12.05;23.74;102057.06;6244057;23;19919;-85
2022/03/22 08:38:58;;;;;;;;;;;;;;;12.26;23.87;102061.03;6243656;23;19915;-85
2022/03/22 08:41:23;;;;;;;;;;;;;;;12.53;24.34;102053.84;6243681;23;20001;-79
2022/03/22 08:43:48;;;;;;;;;;;;;;;12.89;24.25;102052.53;6244355;23;20349;-79
2022/03/22 08:46:14;;;;;;;;;;;;;;;13.24;22.91;102053.56;6243457;23;19919;-79
2022/03/22 08:48:39;;;;;;;;;;;;;;;13.34;23.29;102058.31;6243713;23;19916;-79
2022/03/22 08:51:05;;;;;;;;;;;;;;;13.41;22.01;102058.25;6243667;23;20246;-79
2022/03/22 08:53:31;;;;;;;;;;;;;;;13.19;22.01;102042.84;6243663;23;19924;-79
2022/03/22 08:55:56;;;;;;;;;;;;;;;13.23;22.89;102051.97;6243877;23;19916;-79
2022/03/22 08:58:21;;;;;;;;;;;;;;;13.38;22.88;102053.50;6243792;23;20334;-79
2022/03/22 09:00:47;;;;;;;;;;;;;;;13.41;22.45;102041.53;6243819;23;19958;-85
2022/03/22 09:03:12;;;;;;;;;;;;;;;13.51;21.24;102054.59;6242432;23;19975;-85
2022/03/22 09:08:22;;;;;;;;;;;;;;;13.89;22.42;102042.34;6243615;23;19919;-85
2022/03/22 09:10:50;;;;;;;;;;;;;;;13.87;21.26;102036.38;6243914;23;20257;-85
2022/03/22 09:13:16;;;;;;;;;;;;;;;13.76;20.93;102040.47;6243398;23;19915;-85
2022/03/22 09:15:41;;;;;;;;;;;;;;;13.50;20.15;102042.66;6244201;23;20337;-85
2022/03/22 09:18:13;;;;;;;;;;;;;;;13.55;21.06;102049.78;6216448;23;20042;-85
2022/03/22 09:20:39;;;;;;;;;;;;;;;13.93;22.27;102042.31;6244140;23;20348;-85
2022/03/22 09:23:05;;;;;;;;;;;;;;;14.02;22.15;102043.44;6243452;23;19916;-85
2022/03/22 09:25:30;;;;;;;;;;;;;;;14.14;20.26;102035.75;6243814;23;20387;-85
2022/03/22 09:27:56;;;;;;;;;;;;;;;14.52;21.14;102039.41;6244898;23;19915;-85
2022/03/22 09:30:22;;;;;;;;;;;;;;;14.79;19.42;102041.06;6246155;23;19915;-85
2022/03/22 09:32:47;;;;;;;;;;;;;;;14.58;18.82;102029.34;6245784;23;19962;-85
2022/03/22 09:35:14;;;;;;;;;;;;;;;14.72;19.82;102034.78;6245183;23;20265;-85
2022/03/22 09:37:41;;;;;;;;;;;;;;;14.55;19.68;102030.19;6219074;23;19927;-85
2022/03/22 09:40:08;;;;;;;;;;;;;;;14.65;20.21;102029.25;6246031;23;19969;-85
2022/03/22 09:42:34;;;;;;;;;;;;;;;14.99;19.61;102016.06;6245558;23;20341;-85
2022/03/22 09:45:02;;;;;;;;;;;;;;;15.00;20.01;102026.03;6245423;23;19919;-86
2022/03/22 09:47:28;;;;;;;;;;;;;;;15.05;19.33;102024.75;6245872;23;20337;-85
2022/03/22 09:49:56;;;;;;;;;;;;;;;15.01;20.32;102008.03;6245257;23;19927;-85
2022/03/22 09:52:22;;;;;;;;;;;;;;;15.07;20.03;102020.34;6245610;23;19922;-85
2022/03/22 09:54:47;;;;;;;;;;;;;;;15.11;20.72;102017.50;6245381;23;20237;-86
2022/03/22 09:57:13;;;;;;;;;;;;;;;15.24;20.42;102012.91;6244813;23;20345;-79
2022/03/22 09:59:38;;;;;;;;;;;;;;;15.57;20.89;102012.03;6245277;23;19991;-79
2022/03/22 10:02:04;;;;;;;;;;;;;;;15.52;19.67;102009.72;6245191;23;19969;-78
2022/03/22 10:04:36;;;;;;;;;;;;;;;15.48;19.50;102008.97;6218714;23;20316;-79
2022/03/22 10:07:03;;;;;;;;;;;;;;;15.56;19.61;102009.66;6245897;23;19915;-79
2022/03/22 10:09:33;;;;;;;;;;;;;;;15.56;19.36;102004.88;6245801;23;19919;-79
2022/03/22 10:11:59;;;;;;;;;;;;;;;15.54;20.46;102001.69;6246045;23;19919;-79
2022/03/22 10:14:38;;;;;;;;;;;;;;;15.88;21.24;101993.13;6245407;23;20342;-78
2022/03/22 10:17:19;;;;;;;;;;;;;;;16.23;20.16;101994.47;6245630;23;19919;-86
2022/03/22 10:19:49;;;;;;;;;;;;;;;16.06;18.70;101990.78;6245487;23;19963;-86
2022/03/22 10:22:21;;;;;;;;;;;;;;;15.83;19.33;101988.81;6244920;23;19915;-85
2022/03/22 10:24:47;;;;;;;;;;;;;;;15.90;19.23;101990.69;6245703;23;20245;-86
2022/03/22 10:27:24;;;;;;;;;;;;;;;15.84;18.22;101982.00;6245101;23;19990;-86
2022/03/22 10:29:49;;;;;;;;;;;;;;;16.22;19.51;101982.50;6245402;23;19947;-86
2022/03/22 10:32:15;;;;;;;;;;;;;;;16.32;18.08;101984.31;6245036;23;20231;-85
2022/03/22 10:34:42;;;;;;;;;;;;;;;16.14;17.26;101980.25;6245634;23;20258;-86
2022/03/22 10:37:07;;;;;;;;;;;;;;;15.85;16.74;101974.41;6218024;23;19927;-85
2022/03/22 10:39:34;;;;;;;;;;;;;;;15.93;18.19;101977.88;6244863;23;19915;-85
2022/03/22 10:42:07;;;;;;;;;;;;;;;16.21;17.59;101977.34;6218175;23;19957;-86
2022/03/22 10:44:39;;;;;;;;;;;;;;;16.21;17.39;101972.53;6245177;23;19920;-85
2022/03/22 10:47:08;;;;;;;;;;;;;;;16.17;17.10;101973.81;6245176;23;19915;-85
2022/03/22 10:49:33;;;;;;;;;;;;;;;16.39;18.29;101972.16;6244835;23;20022;-86
2022/03/22 10:51:59;;;;;;;;;;;;;;;16.55;17.10;101965.84;6218214;23;19939;-86
2022/03/22 10:54:24;;;;;;;;;;;;;;;16.37;17.25;101968.22;6244797;23;19915;-85
2022/03/22 10:56:50;;;;;;;;;;;;;;;16.32;17.30;101973.09;6245287;23;19916;-86
2022/03/22 10:59:17;;;;;;;;;;;;;;;16.21;16.90;101960.53;6244301;23;20245;-86
2022/03/22 11:01:45;;;;;;;;;;;;;;;16.23;17.37;101950.47;6244952;23;19973;-86
2022/03/22 11:04:12;;;;;;;;;;;;;;;16.24;16.99;101948.47;6217335;23;19919;-86
2022/03/22 11:06:38;;;;;;;;;;;;;;;16.33;15.69;101959.91;6245261;23;19916;-86
2022/03/22 11:09:04;;;;;;;;;;;;;;;16.37;17.44;101949.41;6244897;23;20058;-87
2022/03/22 11:11:32;;;;;;;;;;;;;;;16.51;15.50;101951.13;6244869;23;20338;-86
2022/03/22 11:13:58;;;;;;;;;;;;;;;16.52;16.46;101939.50;6244022;23;19923;-85
2022/03/22 11:16:27;;;;;;;;;;;;;;;16.72;15.02;101940.28;6245277;23;19915;-86
2022/03/22 11:18:54;;;;;;;;;;;;;;;16.87;15.80;101939.97;6217873;23;20405;-85
2022/03/22 11:21:19;;;;;;;;;;;;;;;17.13;15.63;101941.78;6217824;23;19911;-86
2022/03/22 11:23:47;;;;;;;;;;;;;;;17.08;15.72;101931.06;6244669;23;19950;-86
2022/03/22 11:26:12;;;;;;;;;;;;;;;17.05;16.38;101929.16;6218307;23;19923;-85
2022/03/22 11:28:38;;;;;;;;;;;;;;;17.23;15.80;101924.69;6244626;23;20301;-86
2022/03/22 11:31:05;;;;;;;;;;;;;;;17.20;14.97;101922.75;6244964;23;19920;-86
2022/03/22 11:36:18;;;;;;;;;;;;;;;17.09;14.82;101921.44;6222174;23;20207;-85
2022/03/22 11:38:48;;;;;;;;;;;;;;;17.14;14.48;101913.31;6244295;23;19915;-86
2022/03/22 11:44:21;;;;;;;;;;;;;;;17.33;15.12;101899.63;6244161;23;19916;-85
2022/03/22 11:46:47;;;;;;;;;;;;;;;17.17;15.37;101901.22;6244775;23;19935;-85
2022/03/22 11:49:21;;;;;;;;;;;;;;;17.25;16.34;101899.00;6243626;23;20501;-85
2022/03/22 11:51:53;;;;;;;;;;;;;;;17.22;15.36;101894.28;6217473;23;19923;-78
2022/03/22 11:54:19;;;;;;;;;;;;;;;17.38;15.65;101883.06;6242457;23;19962;-78
2022/03/22 11:57:11;;;;;;;;;;;;;;;17.38;14.92;101890.69;6243316;23;19969;-78
2022/03/22 11:59:43;;;;;;;;;;;;;;;17.60;15.98;101874.88;6236937;23;19999;-78
2022/03/22 12:02:15;;;;;;;;;;;;;;;17.69;15.53;101873.03;6242430;23;19915;-79
2022/03/22 12:04:49;;;;;;;;;;;;;;;17.74;15.00;101868.13;6215563;23;19915;-78
2022/03/22 12:07:20;;;;;;;;;;;;;;;17.63;14.31;101874.78;6241652;23;19916;-79
2022/03/22 12:09:45;;;;;;;;;;;;;;;17.80;15.92;101857.91;6217200;23;19916;-78
2022/03/22 12:12:13;;;;;;;;;;;;;;;18.10;14.61;101857.47;6217170;23;19915;-78
2022/03/22 12:14:40;;;;;;;;;;;;;;;17.88;13.91;101860.09;6244045;23;20338;-79
2022/03/22 12:17:06;;;;;;;;;;;;;;;17.70;13.95;101854.97;6192129;23;19994;-78
2022/03/22 12:19:32;;;;;;;;;;;;;;;17.79;15.03;101831.09;6244118;23;20383;-78
2022/03/22 12:21:58;;;;;;;;;;;;;;;17.86;14.36;101842.13;6216446;23;20334;-78
2022/03/22 12:24:24;;;;;;;;;;;;;;;17.73;14.16;101838.47;6216587;23;19926;-78
2022/03/22 12:26:50;;;;;;;;;;;;;;;17.79;14.59;101839.53;6217557;23;19957;-79
2022/03/22 12:29:16;;;;;;;;;;;;;;;17.76;15.19;101837.56;6243592;23;19915;-79
2022/03/22 12:31:50;;;;;;;;;;;;;;;17.76;14.37;101838.38;6244479;23;20327;-78
2022/03/22 12:34:16;;;;;;;;;;;;;;;17.44;14.12;101827.97;6216804;23;19922;-78
2022/03/22 12:36:41;;;;;;;;;;;;;;;17.33;14.88;101821.88;6217138;23;19931;-78
2022/03/22 12:39:06;;;;;;;;;;;;;;;17.45;15.74;101823.97;6243709;23;19947;-79
2022/03/22 12:41:32;;;;;;;;;;;;;;;17.82;15.28;101813.34;6242419;23;20007;-78
2022/03/22 12:43:57;;;;;;;;;;;;;;;17.97;14.94;101817.31;6214596;23;19966;-79
2022/03/22 12:46:23;;;;;;;;;;;;;;;17.37;14.42;101816.16;6216053;23;19920;-78
2022/03/22 12:48:50;;;;;;;;;;;;;;;17.56;15.74;101813.22;6215717;23;19916;-79
2022/03/22 12:51:16;;;;;;;;;;;;;;;17.69;15.01;101800.06;6242587;23;20328;-79
2022/03/22 12:53:41;;;;;;;;;;;;;;;17.77;15.52;101802.66;6216298;23;19939;-79
2022/03/22 12:56:14;;;;;;;;;;;;;;;17.74;16.15;101800.75;6242579;23;19947;-78
2022/03/22 12:58:39;;;;;;;;;;;;;;;17.36;14.91;101790.13;6242862;23;19982;-79
2022/03/22 13:01:05;;;;;;;;;;;;;;;17.60;15.71;101774.66;6215362;23;19912;-78
2022/03/22 13:03:30;;;;;;;;;;;;;;;17.77;15.75;101788.63;6243104;23;19994;-78
2022/03/22 13:05:56;;;;;;;;;;;;;;;17.78;15.59;101781.81;6214775;23;20289;-78
2022/03/22 13:08:26;;;;;;;;;;;;;;;17.87;16.61;101787.56;6243212;23;19922;-79